Time;durP1;ratioP1;P1;durP2;ratioP2;P2;SDS_P1;SDS_P2;PMS_P1;PMS_P2;Temp;Humidity;BMP_temperature;BMP_pressure;BME280_temperature;BME280_humidity;BME280_pressure;Samples;Min_cycle;Max_cycle;Signal;HPM_P1;HPM_P2
2021/01/09 00:02:25;;;;;;;1.97;1.90;;;19.70;50.10;;;;;;5054767;28;20543;-68
2021/01/09 00:04:51;;;;;;;1.80;1.70;;;19.70;50.00;;;;;;5048452;28;20617;-69
2021/01/09 00:07:18;;;;;;;2.20;2.10;;;19.80;49.90;;;;;;5056231;28;20542;-68
2021/01/09 00:09:44;;;;;;;1.80;1.70;;;19.70;49.80;;;;;;5035626;28;20494;-68
2021/01/09 00:12:12;;;;;;;1.73;1.63;;;19.70;49.80;;;;;;5046430;28;21246;-69
2021/01/09 00:14:38;;;;;;;1.90;1.80;;;19.70;49.70;;;;;;5044483;28;21307;-69
2021/01/09 00:17:09;;;;;;;1.63;1.53;;;19.70;49.90;;;;;;5055472;28;20510;-68
2021/01/09 00:19:35;;;;;;;2.33;2.23;;;19.60;49.80;;;;;;5036876;28;20474;-69
2021/01/09 00:22:01;;;;;;;1.73;1.73;;;19.60;49.70;;;;;;5055707;28;20481;-65
2021/01/09 00:24:28;;;;;;;1.63;1.53;;;19.60;49.70;;;;;;5044523;28;20480;-67
2021/01/09 00:26:55;;;;;;;1.50;1.47;;;19.60;49.70;;;;;;5057773;28;20493;-68
2021/01/09 00:29:21;;;;;;;2.40;2.00;;;19.60;49.70;;;;;;5057540;28;20481;-68
2021/01/09 00:31:47;;;;;;;1.60;1.50;;;19.60;49.70;;;;;;5050444;28;20574;-68
2021/01/09 00:34:13;;;;;;;2.00;1.90;;;19.60;49.80;;;;;;5056228;28;20508;-68
2021/01/09 00:36:46;;;;;;;1.67;1.57;;;19.50;49.60;;;;;;5053683;28;20501;-68
2021/01/09 00:39:12;;;;;;;2.10;1.83;;;19.50;49.70;;;;;;5054529;28;20486;-68
2021/01/09 00:41:39;;;;;;;1.73;1.63;;;19.50;49.70;;;;;;5046737;28;20493;-68
2021/01/09 00:44:06;;;;;;;2.27;2.17;;;19.50;49.60;;;;;;5068115;28;20474;-67
2021/01/09 00:46:33;;;;;;;2.03;1.93;;;19.50;49.50;;;;;;5055356;28;20566;-68
2021/01/09 00:48:59;;;;;;;1.60;1.50;;;19.50;49.50;;;;;;5051412;28;20489;-68
2021/01/09 00:51:25;;;;;;;5.20;1.67;;;19.50;49.30;;;;;;5046091;28;21036;-68
2021/01/09 00:53:51;;;;;;;2.00;1.90;;;19.60;49.40;;;;;;5060999;28;20489;-68
2021/01/09 00:56:17;;;;;;;1.27;1.27;;;19.60;49.20;;;;;;5059097;28;21125;-67
2021/01/09 00:58:44;;;;;;;2.27;2.07;;;19.60;49.30;;;;;;5039034;28;20481;-68
2021/01/09 01:01:11;;;;;;;2.20;2.10;;;19.60;49.30;;;;;;5053649;28;21119;-69
2021/01/09 01:03:38;;;;;;;1.93;1.83;;;19.60;49.30;;;;;;5044358;28;20478;-68
2021/01/09 01:06:05;;;;;;;2.30;2.20;;;19.60;49.20;;;;;;5046014;28;21642;-68
2021/01/09 01:08:31;;;;;;;1.70;1.60;;;19.60;49.30;;;;;;5050535;28;20527;-67
2021/01/09 01:10:57;;;;;;;2.10;2.00;;;19.60;49.20;;;;;;5040786;28;20522;-68
2021/01/09 01:13:23;;;;;;;3.00;1.70;;;19.50;49.20;;;;;;5033965;28;20490;-67
2021/01/09 01:15:50;;;;;;;1.80;1.70;;;19.50;49.10;;;;;;5035101;28;21405;-68
2021/01/09 01:18:18;;;;;;;1.97;1.87;;;19.50;49.20;;;;;;5036446;28;20486;-68
2021/01/09 01:20:44;;;;;;;1.57;1.47;;;19.50;49.10;;;;;;5024863;28;20485;-69
2021/01/09 01:23:10;;;;;;;3.67;1.80;;;19.50;49.20;;;;;;5030352;28;21016;-68
2021/01/09 01:25:36;;;;;;;2.37;2.17;;;19.50;49.30;;;;;;5026287;28;20497;-68
2021/01/09 01:28:03;;;;;;;2.20;2.10;;;19.50;49.20;;;;;;5042252;28;20924;-68
2021/01/09 01:30:29;;;;;;;1.50;1.40;;;19.50;49.20;;;;;;5033548;28;20478;-67
2021/01/09 01:32:56;;;;;;;2.13;1.97;;;19.50;49.20;;;;;;5048701;28;20483;-68
2021/01/09 01:35:22;;;;;;;1.67;1.57;;;19.50;49.10;;;;;;5044775;28;20497;-68
2021/01/09 01:37:48;;;;;;;1.33;1.33;;;19.50;49.10;;;;;;5050252;28;20501;-68
2021/01/09 01:40:15;;;;;;;2.03;1.73;;;19.50;49.10;;;;;;5062086;28;20497;-68
2021/01/09 01:42:41;;;;;;;2.50;2.30;;;19.50;49.10;;;;;;5039574;28;20485;-68
2021/01/09 01:45:08;;;;;;;1.30;1.20;;;19.50;49.00;;;;;;5040102;28;20839;-68
2021/01/09 01:47:35;;;;;;;2.17;1.80;;;19.50;48.80;;;;;;5032752;28;21457;-68
2021/01/09 01:50:02;;;;;;;1.53;1.43;;;19.50;49.00;;;;;;5044799;28;20900;-68
2021/01/09 01:52:28;;;;;;;1.30;1.30;;;19.50;49.00;;;;;;5048826;28;21103;-68
2021/01/09 01:54:54;;;;;;;2.03;1.93;;;19.50;48.90;;;;;;5047715;28;20482;-68
2021/01/09 01:57:20;;;;;;;2.00;1.90;;;19.50;48.70;;;;;;5040266;28;21236;-68
2021/01/09 01:59:47;;;;;;;2.30;2.10;;;19.50;48.70;;;;;;5055138;28;20476;-68
2021/01/09 02:02:13;;;;;;;1.60;1.50;;;19.50;48.60;;;;;;5051802;28;21012;-68
2021/01/09 02:04:40;;;;;;;2.27;2.17;;;19.50;48.60;;;;;;5059265;28;22100;-68
2021/01/09 02:07:07;;;;;;;3.70;1.47;;;19.50;48.60;;;;;;5039252;28;21251;-68
2021/01/09 02:09:36;;;;;;;1.90;1.80;;;19.50;48.60;;;;;;5049930;28;20469;-68
2021/01/09 02:12:05;;;;;;;2.30;2.20;;;19.50;48.50;;;;;;5018828;28;20512;-68
2021/01/09 02:14:37;;;;;;;2.10;2.00;;;19.40;48.50;;;;;;5047647;28;20551;-68
2021/01/09 02:17:04;;;;;;;1.90;1.77;;;19.40;48.50;;;;;;5037348;28;21072;-68
2021/01/09 02:19:30;;;;;;;2.03;2.00;;;19.50;48.60;;;;;;5034412;28;20513;-68
2021/01/09 02:21:58;;;;;;;2.33;2.10;;;19.40;49.20;;;;;;4992685;28;20520;-68
2021/01/09 02:24:25;;;;;;;1.40;1.40;;;19.40;48.40;;;;;;5028758;28;20548;-68
2021/01/09 02:26:51;;;;;;;1.90;1.80;;;19.40;48.50;;;;;;5021420;28;20466;-68
2021/01/09 02:29:17;;;;;;;1.53;1.43;;;19.40;48.40;;;;;;5045535;28;21037;-69
2021/01/09 02:31:48;;;;;;;1.70;1.60;;;19.40;48.50;;;;;;5024407;28;20480;-69
2021/01/09 02:34:15;;;;;;;2.10;2.00;;;19.40;48.50;;;;;;5036913;28;20481;-68
2021/01/09 02:36:41;;;;;;;2.10;2.00;;;19.40;48.50;;;;;;5049922;28;20508;-68
2021/01/09 02:39:07;;;;;;;1.53;1.43;;;19.40;48.40;;;;;;5062501;28;20889;-68
2021/01/09 02:41:35;;;;;;;2.00;1.90;;;19.40;48.40;;;;;;5057378;28;20489;-68
2021/01/09 02:44:08;;;;;;;2.03;1.83;;;19.40;48.40;;;;;;5052006;28;20488;-68
2021/01/09 02:46:35;;;;;;;2.10;2.00;;;19.40;48.30;;;;;;5042524;28;20551;-68
2021/01/09 02:49:01;;;;;;;1.80;1.70;;;19.40;48.30;;;;;;5037899;28;20485;-68
2021/01/09 02:51:27;;;;;;;1.60;1.50;;;19.40;48.30;;;;;;5032170;28;20497;-68
2021/01/09 02:53:53;;;;;;;1.90;1.80;;;19.40;48.20;;;;;;5043742;28;20501;-68
2021/01/09 02:56:19;;;;;;;1.50;1.50;;;19.40;48.30;;;;;;5037017;28;21182;-68
2021/01/09 02:58:46;;;;;;;2.00;1.90;;;19.40;48.30;;;;;;5053361;28;20465;-68
2021/01/09 03:01:13;;;;;;;1.47;1.47;;;19.40;48.20;;;;;;5042018;28;20485;-68
2021/01/09 03:03:39;;;;;;;1.90;1.60;;;19.40;48.20;;;;;;5026014;28;20494;-68
2021/01/09 03:06:05;;;;;;;1.97;1.87;;;19.40;48.20;;;;;;5038643;28;20481;-68
2021/01/09 03:08:31;;;;;;;1.80;1.70;;;19.40;48.20;;;;;;5054833;28;20474;-67
2021/01/09 03:10:57;;;;;;;2.50;1.93;;;19.40;48.20;;;;;;5036290;28;20470;-68
2021/01/09 03:13:24;;;;;;;1.20;1.20;;;19.40;48.20;;;;;;5021891;28;20494;-69
2021/01/09 03:15:51;;;;;;;1.80;1.70;;;19.40;48.20;;;;;;5049391;28;20476;-68
2021/01/09 03:18:17;;;;;;;1.37;1.37;;;19.40;48.10;;;;;;5056709;28;20489;-68
2021/01/09 03:20:43;;;;;;;1.30;1.30;;;19.40;48.00;;;;;;5050923;28;20524;-69
2021/01/09 03:23:09;;;;;;;1.90;1.80;;;19.40;48.00;;;;;;5047219;28;20494;-68
2021/01/09 03:25:35;;;;;;;1.87;1.77;;;19.40;47.90;;;;;;5040552;28;20993;-68
2021/01/09 03:28:02;;;;;;;1.70;1.70;;;19.40;48.00;;;;;;5019144;28;20478;-68
2021/01/09 03:30:28;;;;;;;1.83;1.73;;;19.40;47.90;;;;;;5004777;28;20506;-68
2021/01/09 03:32:55;;;;;;;2.33;1.87;;;19.40;47.90;;;;;;5041268;28;20492;-68
2021/01/09 03:35:22;;;;;;;1.37;1.37;;;19.40;47.90;;;;;;5049794;28;20503;-68
2021/01/09 03:37:48;;;;;;;1.40;1.30;;;19.40;47.90;;;;;;5057344;28;20520;-68
2021/01/09 03:40:15;;;;;;;1.90;1.80;;;19.40;47.90;;;;;;5060746;28;20477;-68
2021/01/09 03:42:41;;;;;;;2.00;1.90;;;19.30;47.70;;;;;;5026481;28;20589;-68
2021/01/09 03:45:08;;;;;;;2.20;2.10;;;19.40;47.70;;;;;;5047901;28;20483;-68
2021/01/09 03:47:34;;;;;;;1.47;1.47;;;19.40;47.70;;;;;;5032071;28;20524;-68
2021/01/09 03:50:01;;;;;;;2.00;1.90;;;19.40;47.60;;;;;;5035421;28;20561;-68
2021/01/09 03:52:27;;;;;;;2.10;2.00;;;19.40;47.60;;;;;;5032752;28;20493;-68
2021/01/09 03:54:54;;;;;;;2.00;1.90;;;19.40;47.60;;;;;;5040023;28;20485;-68
2021/01/09 03:57:20;;;;;;;1.60;1.50;;;19.40;47.60;;;;;;5050967;28;20473;-68
2021/01/09 03:59:46;;;;;;;1.80;1.80;;;19.40;47.60;;;;;;5049083;28;20487;-69
2021/01/09 04:02:12;;;;;;;1.53;1.53;;;19.40;47.60;;;;;;5048340;28;20482;-68
2021/01/09 04:04:38;;;;;;;2.20;2.03;;;19.40;48.30;;;;;;5038833;28;20592;-68
2021/01/09 04:07:06;;;;;;;1.90;1.80;;;19.40;47.60;;;;;;5051472;28;20482;-67
2021/01/09 04:09:32;;;;;;;1.80;1.70;;;19.40;47.60;;;;;;5040092;28;21580;-69
2021/01/09 04:11:58;;;;;;;1.80;1.80;;;19.40;47.60;;;;;;5020392;28;20483;-68
2021/01/09 04:14:24;;;;;;;2.20;2.10;;;19.40;47.50;;;;;;5067140;28;20494;-68
2021/01/09 04:16:50;;;;;;;2.00;1.90;;;19.40;47.40;;;;;;5040259;28;20490;-68
2021/01/09 04:19:17;;;;;;;2.00;1.90;;;19.40;47.50;;;;;;5034646;28;20557;-68
2021/01/09 04:21:43;;;;;;;1.47;1.47;;;19.40;47.40;;;;;;5055079;28;20536;-67
2021/01/09 04:24:11;;;;;;;1.83;1.73;;;19.40;47.40;;;;;;5038050;28;20544;-68
2021/01/09 04:26:37;;;;;;;1.80;1.70;;;19.40;47.40;;;;;;5031793;28;20486;-68
2021/01/09 04:29:03;;;;;;;1.20;1.20;;;19.40;47.40;;;;;;5035858;28;20628;-68
2021/01/09 04:31:30;;;;;;;1.60;1.50;;;19.30;47.40;;;;;;5024912;28;20483;-68
2021/01/09 04:33:56;;;;;;;1.73;1.63;;;19.30;47.30;;;;;;5042028;28;20497;-68
2021/01/09 04:36:22;;;;;;;1.50;1.50;;;19.30;47.30;;;;;;5023482;28;20491;-68
2021/01/09 04:38:48;;;;;;;1.50;1.40;;;19.30;47.40;;;;;;5046650;28;21639;-68
2021/01/09 04:41:15;;;;;;;1.77;1.67;;;19.30;47.30;;;;;;5055731;28;20526;-68
2021/01/09 04:43:41;;;;;;;1.90;1.80;;;19.30;47.30;;;;;;5038992;28;20500;-67
2021/01/09 04:46:07;;;;;;;1.50;1.50;;;19.30;47.30;;;;;;5061205;28;21465;-68
2021/01/09 04:48:34;;;;;;;1.90;1.80;;;19.30;47.40;;;;;;5049234;28;21559;-68
2021/01/09 04:51:00;;;;;;;1.40;1.40;;;19.30;47.30;;;;;;5043530;28;21171;-68
2021/01/09 04:53:26;;;;;;;1.80;1.70;;;19.30;47.40;;;;;;5062703;28;20501;-68
2021/01/09 04:55:52;;;;;;;2.07;1.87;;;19.30;47.30;;;;;;5054761;28;20486;-69
2021/01/09 04:58:20;;;;;;;4.40;1.90;;;19.30;47.30;;;;;;5057901;28;20578;-67
2021/01/09 05:00:53;;;;;;;1.47;1.47;;;19.30;47.30;;;;;;5051011;28;20485;-68
2021/01/09 05:03:19;;;;;;;1.20;1.20;;;19.30;47.30;;;;;;5044065;28;20560;-68
2021/01/09 05:05:46;;;;;;;1.23;1.23;;;19.30;47.30;;;;;;5062398;28;20478;-68
2021/01/09 05:08:12;;;;;;;1.77;1.67;;;19.30;47.10;;;;;;5054186;28;20468;-68
2021/01/09 05:10:38;;;;;;;1.77;1.77;;;19.30;47.10;;;;;;5033924;28;20548;-68
2021/01/09 05:13:05;;;;;;;1.50;1.50;;;19.30;47.10;;;;;;5027404;28;20508;-67
2021/01/09 05:15:39;;;;;;;1.20;1.20;;;19.30;47.10;;;;;;5044799;28;20515;-68
2021/01/09 05:18:05;;;;;;;1.60;1.50;;;19.30;47.10;;;;;;5049631;28;20492;-67
2021/01/09 05:20:31;;;;;;;1.80;1.70;;;19.30;47.00;;;;;;5051596;28;20500;-68
2021/01/09 05:22:58;;;;;;;1.60;1.50;;;19.30;47.00;;;;;;5026245;28;20481;-69
2021/01/09 05:25:24;;;;;;;1.70;1.67;;;19.30;47.00;;;;;;5022068;28;20908;-68
2021/01/09 05:27:52;;;;;;;1.60;1.50;;;19.30;47.00;;;;;;5026292;28;20522;-68
2021/01/09 05:30:18;;;;;;;1.70;1.60;;;19.30;47.00;;;;;;5017484;28;20490;-69
2021/01/09 05:32:45;;;;;;;1.50;1.40;;;19.30;47.00;;;;;;5028440;28;20475;-68
2021/01/09 05:35:13;;;;;;;1.70;1.60;;;19.30;47.00;;;;;;5030940;28;20489;-67
2021/01/09 05:37:39;;;;;;;1.57;1.47;;;19.30;47.00;;;;;;5031977;28;21032;-68
2021/01/09 05:40:06;;;;;;;1.77;1.67;;;19.30;46.90;;;;;;5019164;28;20495;-68
2021/01/09 05:42:34;;;;;;;1.80;1.70;;;19.30;46.90;;;;;;5008692;28;20517;-69
2021/01/09 05:45:00;;;;;;;1.40;1.40;;;19.30;46.80;;;;;;5056812;28;20474;-68
2021/01/09 05:47:27;;;;;;;1.93;1.83;;;19.30;46.70;;;;;;5045330;28;20487;-68
2021/01/09 05:49:54;;;;;;;1.70;1.60;;;19.30;46.70;;;;;;5033639;28;20475;-68
2021/01/09 05:52:22;;;;;;;1.40;1.40;;;19.30;46.70;;;;;;5033485;28;20472;-67
2021/01/09 05:54:48;;;;;;;1.83;1.73;;;19.30;46.80;;;;;;5032654;28;21555;-68
2021/01/09 05:57:16;;;;;;;2.00;1.90;;;19.30;47.50;;;;;;5034719;28;20482;-68
2021/01/09 05:59:42;;;;;;;2.30;2.20;;;19.30;46.70;;;;;;5028388;28;20564;-68
2021/01/09 06:02:09;;;;;;;2.07;1.97;;;19.30;46.60;;;;;;5020560;28;20493;-68
2021/01/09 06:04:35;;;;;;;1.30;1.30;;;19.30;46.50;;;;;;5040332;28;20532;-69
2021/01/09 06:07:06;;;;;;;1.83;1.73;;;19.30;46.40;;;;;;5024981;28;20485;-68
2021/01/09 06:09:35;;;;;;;1.67;1.57;;;19.30;46.40;;;;;;5013846;28;20525;-69
2021/01/09 06:12:04;;;;;;;2.20;2.10;;;19.30;46.20;;;;;;5028494;28;20559;-68
2021/01/09 06:14:30;;;;;;;1.70;1.60;;;19.30;46.30;;;;;;5066974;28;20476;-68
2021/01/09 06:16:57;;;;;;;1.90;1.80;;;19.30;46.40;;;;;;5047341;28;20482;-68
2021/01/09 06:19:23;;;;;;;2.20;2.10;;;19.30;46.00;;;;;;5037677;28;20486;-68
2021/01/09 06:21:50;;;;;;;2.10;2.00;;;19.20;45.90;;;;;;5029648;28;21211;-68
2021/01/09 06:24:17;;;;;;;1.73;1.63;;;19.20;46.70;;;;;;5032875;28;20481;-68
2021/01/09 06:26:43;;;;;;;1.70;1.70;;;19.20;45.90;;;;;;5027409;28;20494;-68
2021/01/09 06:29:19;;;;;;;1.87;1.80;;;19.20;45.90;;;;;;5038147;28;20489;-69
2021/01/09 06:31:50;;;;;;;1.80;1.80;;;19.20;46.00;;;;;;5051134;28;20556;-68
2021/01/09 06:34:16;;;;;;;1.27;1.27;;;19.20;46.10;;;;;;5042225;28;20517;-68
2021/01/09 06:36:43;;;;;;;1.53;1.30;;;19.20;46.30;;;;;;5054144;28;20493;-67
2021/01/09 06:39:09;;;;;;;1.10;1.10;;;19.20;46.20;;;;;;5052217;28;20486;-68
2021/01/09 06:41:36;;;;;;;1.70;1.60;;;19.30;46.50;;;;;;5036748;28;20483;-69
2021/01/09 06:44:05;;;;;;;1.53;1.43;;;19.30;46.60;;;;;;5033545;28;20882;-68
2021/01/09 06:46:35;;;;;;;1.40;1.40;;;19.30;46.50;;;;;;5045624;28;20550;-68
2021/01/09 06:49:01;;;;;;;1.80;1.70;;;19.30;46.60;;;;;;5044026;28;21526;-68
2021/01/09 06:51:38;;;;;;;1.23;1.23;;;19.30;46.80;;;;;;5049899;28;20479;-68
2021/01/09 06:54:18;;;;;;;2.00;1.90;;;19.30;46.90;;;;;;5039598;28;20494;-68
2021/01/09 06:56:45;;;;;;;2.87;1.33;;;19.30;46.90;;;;;;5038777;28;20491;-68
2021/01/09 06:59:13;;;;;;;1.47;1.43;;;19.30;46.80;;;;;;5063167;28;20516;-68
2021/01/09 07:01:39;;;;;;;1.47;1.47;;;19.30;46.90;;;;;;5032301;28;21553;-68
2021/01/09 07:04:06;;;;;;;1.37;1.37;;;19.30;46.90;;;;;;5025558;28;20544;-68
2021/01/09 07:07:02;;;;;;;1.40;1.40;;;19.30;47.00;;;;;;4998852;28;20540;-67
2021/01/09 07:09:28;;;;;;;1.30;1.20;;;19.30;47.10;;;;;;4952091;28;21093;-68
2021/01/09 07:11:55;;;;;;;2.10;2.00;;;19.30;47.10;;;;;;5022360;28;20497;-68
2021/01/09 07:14:22;;;;;;;1.57;1.50;;;19.20;47.10;;;;;;5035929;28;20480;-68
2021/01/09 07:16:48;;;;;;;1.43;1.43;;;19.20;47.20;;;;;;5010789;28;20483;-68
2021/01/09 07:19:14;;;;;;;1.63;1.53;;;19.20;47.10;;;;;;5016299;28;20490;-68
2021/01/09 07:21:40;;;;;;;1.40;1.40;;;19.30;47.20;;;;;;5026710;28;20478;-67
2021/01/09 07:24:08;;;;;;;1.23;1.23;;;19.30;47.10;;;;;;5048749;28;20465;-68
2021/01/09 07:26:35;;;;;;;1.33;1.30;;;19.30;47.30;;;;;;5064199;28;21026;-68
2021/01/09 07:29:03;;;;;;;1.60;1.53;;;19.30;47.30;;;;;;5045493;28;20494;-68
2021/01/09 07:31:31;;;;;;;1.57;1.47;;;19.30;47.30;;;;;;5025828;28;20486;-68
2021/01/09 07:33:58;;;;;;;3.00;1.43;;;19.40;47.30;;;;;;5032847;28;20481;-68
2021/01/09 07:36:24;;;;;;;1.90;1.80;;;19.40;47.10;;;;;;5037382;28;21609;-68
2021/01/09 07:38:50;;;;;;;1.10;1.10;;;19.40;47.00;;;;;;5026313;28;20483;-68
2021/01/09 07:41:31;;;;;;;1.50;1.40;;;19.50;47.00;;;;;;5045646;28;20470;-68
2021/01/09 07:44:13;;;;;;;1.10;1.10;;;19.50;47.00;;;;;;5020956;28;20474;-68
2021/01/09 07:46:50;;;;;;;1.10;1.10;;;19.50;47.00;;;;;;5057731;28;20475;-68
2021/01/09 07:49:24;;;;;;;1.60;1.50;;;19.50;46.90;;;;;;5041630;28;20489;-68
2021/01/09 07:51:51;;;;;;;1.47;1.40;;;19.50;47.00;;;;;;5049002;28;21431;-68
2021/01/09 07:54:44;;;;;;;1.63;1.53;;;19.40;47.10;;;;;;5015693;28;20505;-69
2021/01/09 07:57:21;;;;;;;2.37;1.70;;;19.40;47.40;;;;;;4987512;28;20536;-69
2021/01/09 08:00:04;;;;;;;1.00;1.00;;;19.40;47.30;;;;;;5062444;28;21101;-68
2021/01/09 08:02:31;;;;;;;1.63;1.53;;;19.40;47.20;;;;;;5053071;28;20492;-68
2021/01/09 08:05:17;;;;;;;1.13;1.13;;;19.40;47.10;;;;;;5046035;28;20961;-68
2021/01/09 08:07:44;;;;;;;1.20;1.20;;;19.40;47.10;;;;;;5039993;28;20519;-68
2021/01/09 08:10:27;;;;;;;1.10;1.10;;;19.50;47.00;;;;;;5043884;28;20481;-68
2021/01/09 08:12:57;;;;;;;1.63;1.53;;;19.50;46.90;;;;;;5052662;28;20523;-68
2021/01/09 08:15:24;;;;;;;1.27;1.27;;;19.50;47.00;;;;;;5048019;28;20490;-68
2021/01/09 08:17:50;;;;;;;1.30;1.30;;;19.50;46.90;;;;;;5057363;28;20523;-67
2021/01/09 08:20:18;;;;;;;1.80;1.70;;;19.60;47.00;;;;;;5055548;28;20480;-68
2021/01/09 08:22:55;;;;;;;1.00;1.00;;;19.60;47.10;;;;;;5035974;28;20481;-69
2021/01/09 08:25:21;;;;;;;1.87;1.77;;;19.60;48.00;;;;;;5045118;28;20878;-69
2021/01/09 08:27:49;;;;;;;1.70;1.70;;;19.50;47.00;;;;;;5058328;28;20492;-69
2021/01/09 08:30:17;;;;;;;1.87;1.77;;;19.50;47.30;;;;;;5053441;28;20497;-72
2021/01/09 08:32:44;;;;;;;2.33;2.23;;;19.40;47.30;;;;;;5046985;28;20501;-68
2021/01/09 08:35:11;;;;;;;1.90;1.80;;;19.40;46.70;;;;;;5050464;28;20482;-68
2021/01/09 08:37:37;;;;;;;2.10;1.67;;;19.40;46.80;;;;;;5053922;28;20481;-68
2021/01/09 08:40:17;;;;;;;1.57;1.50;;;19.40;46.90;;;;;;5041068;28;20956;-68
2021/01/09 08:42:56;;;;;;;1.80;1.70;;;19.40;46.60;;;;;;5028309;28;20478;-69
2021/01/09 08:45:43;;;;;;;2.27;2.17;;;19.40;46.50;;;;;;5019847;28;20589;-68
2021/01/09 08:48:11;;;;;;;1.90;1.80;;;19.40;46.50;;;;;;5029816;28;20474;-69
2021/01/09 08:50:42;;;;;;;0.90;0.90;;;19.40;46.70;;;;;;5021806;28;20520;-68
2021/01/09 08:53:08;;;;;;;1.73;1.63;;;19.50;46.90;;;;;;5014460;28;20470;-68
2021/01/09 08:55:34;;;;;;;1.67;1.57;;;19.50;46.80;;;;;;5030921;28;20480;-69
2021/01/09 08:58:00;;;;;;;1.57;1.47;;;19.50;46.90;;;;;;5056669;28;20485;-68
2021/01/09 09:00:27;;;;;;;1.37;1.30;;;19.50;46.80;;;;;;5019815;28;20528;-68
2021/01/09 09:02:53;;;;;;;1.40;1.40;;;19.50;46.90;;;;;;5012968;28;20490;-68
2021/01/09 09:05:20;;;;;;;1.90;1.90;;;19.50;47.00;;;;;;5019101;28;20553;-68
2021/01/09 09:07:46;;;;;;;2.60;1.83;;;19.50;47.10;;;;;;5022500;28;20486;-69
2021/01/09 09:10:13;;;;;;;1.80;1.70;;;19.50;47.20;;;;;;4988518;28;20498;-68
2021/01/09 09:12:39;;;;;;;1.27;1.27;;;19.40;47.30;;;;;;5005385;28;20640;-69
2021/01/09 09:15:10;;;;;;;1.27;1.27;;;19.50;47.30;;;;;;5023689;28;20474;-68
2021/01/09 09:17:36;;;;;;;1.87;1.77;;;19.50;47.10;;;;;;5034684;28;20783;-68
2021/01/09 09:20:03;;;;;;;1.80;1.70;;;19.50;47.10;;;;;;5051040;28;20477;-68
2021/01/09 09:22:30;;;;;;;1.40;1.30;;;19.50;47.10;;;;;;5033651;28;20512;-68
2021/01/09 09:24:56;;;;;;;1.77;1.67;;;19.60;47.00;;;;;;5039886;28;21485;-69
2021/01/09 09:27:23;;;;;;;1.20;1.20;;;19.60;46.90;;;;;;5038421;28;20485;-68
2021/01/09 09:29:49;;;;;;;2.03;1.93;;;19.60;47.00;;;;;;5035599;28;20493;-68
2021/01/09 09:32:26;;;;;;;1.37;1.27;;;19.50;46.90;;;;;;5034300;28;20488;-68
2021/01/09 09:34:53;;;;;;;1.37;1.37;;;19.50;47.00;;;;;;5031632;28;20501;-68
2021/01/09 09:37:19;;;;;;;1.80;1.70;;;19.40;47.00;;;;;;5030522;28;20497;-68
2021/01/09 09:39:46;;;;;;;1.80;1.70;;;19.40;46.90;;;;;;4999423;28;20513;-68
2021/01/09 09:42:12;;;;;;;1.33;1.23;;;19.40;47.00;;;;;;5033242;28;20485;-67
2021/01/09 09:44:41;;;;;;;2.23;2.03;;;19.40;47.20;;;;;;5038531;28;20469;-68
2021/01/09 09:47:09;;;;;;;2.27;2.07;;;19.30;47.20;;;;;;5052242;28;20493;-68
2021/01/09 09:49:36;;;;;;;2.23;2.13;;;19.40;47.10;;;;;;5040586;28;20482;-68
2021/01/09 09:52:02;;;;;;;1.77;1.67;;;19.30;47.10;;;;;;5056554;28;20477;-68
2021/01/09 09:54:30;;;;;;;2.53;2.43;;;19.40;47.00;;;;;;5038297;28;21566;-68
2021/01/09 09:56:57;;;;;;;2.13;2.03;;;19.40;47.10;;;;;;5042825;28;20478;-68
2021/01/09 09:59:32;;;;;;;2.33;2.27;;;19.40;47.20;;;;;;5037963;28;20482;-68
2021/01/09 10:01:59;;;;;;;2.20;2.00;;;19.40;47.40;;;;;;5036730;28;20996;-68
2021/01/09 10:04:26;;;;;;;2.40;2.30;;;19.30;47.30;;;;;;5034636;28;20522;-68
2021/01/09 10:06:52;;;;;;;2.83;2.73;;;19.40;47.40;;;;;;5036461;28;21165;-68
2021/01/09 10:09:19;;;;;;;2.83;2.67;;;19.40;47.20;;;;;;5038671;28;21110;-68
2021/01/09 10:11:46;;;;;;;2.90;2.80;;;19.40;47.20;;;;;;5017821;28;20498;-68
2021/01/09 10:14:13;;;;;;;2.80;2.70;;;19.40;47.20;;;;;;5019722;28;20482;-68
2021/01/09 10:16:39;;;;;;;2.70;2.60;;;19.30;47.30;;;;;;4997003;28;20542;-67
2021/01/09 10:19:05;;;;;;;3.77;3.57;;;19.30;47.30;;;;;;5036114;28;20640;-68
2021/01/09 10:21:32;;;;;;;2.57;2.47;;;19.30;47.40;;;;;;5032411;28;20520;-68
2021/01/09 10:23:58;;;;;;;2.80;2.70;;;19.30;47.20;;;;;;5040415;28;20484;-68
2021/01/09 10:26:26;;;;;;;2.73;2.53;;;19.30;47.30;;;;;;5064677;28;20490;-68
2021/01/09 10:28:52;;;;;;;3.17;2.87;;;19.30;47.40;;;;;;5059790;28;20476;-68
2021/01/09 10:31:27;;;;;;;3.20;3.00;;;19.30;47.40;;;;;;5057038;28;20882;-68
2021/01/09 10:33:53;;;;;;;2.60;2.43;;;19.40;47.30;;;;;;5050998;28;20492;-68
2021/01/09 10:36:23;;;;;;;2.43;2.33;;;19.40;47.20;;;;;;5049280;28;20588;-68
2021/01/09 10:38:49;;;;;;;2.80;2.63;;;19.40;47.10;;;;;;5059137;28;20551;-68
2021/01/09 10:41:15;;;;;;;2.30;2.17;;;19.40;47.30;;;;;;5047256;28;20496;-68
2021/01/09 10:43:41;;;;;;;3.10;2.90;;;19.30;47.30;;;;;;5001516;28;20505;-68
2021/01/09 10:46:07;;;;;;;3.27;3.00;;;19.30;47.30;;;;;;5010146;28;21022;-68
2021/01/09 10:48:34;;;;;;;3.07;2.87;;;19.30;47.40;;;;;;5043376;28;20483;-68
2021/01/09 10:51:01;;;;;;;3.33;3.13;;;19.30;47.30;;;;;;5018127;28;20490;-69
2021/01/09 10:53:27;;;;;;;3.17;2.93;;;19.30;47.30;;;;;;5012870;28;20495;-68
2021/01/09 10:55:55;;;;;;;3.13;2.90;;;19.30;47.30;;;;;;5038453;28;20581;-68
2021/01/09 10:58:21;;;;;;;3.17;2.97;;;19.30;46.90;;;;;;5040937;28;21014;-68
2021/01/09 11:00:47;;;;;;;3.23;2.93;;;19.40;47.10;;;;;;5062121;28;20501;-68
2021/01/09 11:03:14;;;;;;;3.60;3.30;;;19.40;47.00;;;;;;5023312;28;20474;-68
2021/01/09 11:05:43;;;;;;;2.97;2.70;;;19.30;47.10;;;;;;5039906;28;21037;-68
2021/01/09 11:08:09;;;;;;;3.37;3.17;;;19.30;47.30;;;;;;5022711;28;20490;-68
2021/01/09 11:10:35;;;;;;;3.53;3.00;;;19.30;47.20;;;;;;5035792;28;20994;-68
2021/01/09 11:13:01;;;;;;;3.37;3.20;;;19.30;47.30;;;;;;5035623;28;20502;-68
2021/01/09 11:15:27;;;;;;;4.30;3.20;;;19.40;47.30;;;;;;5057612;28;20482;-68
2021/01/09 11:17:54;;;;;;;3.97;3.67;;;19.40;47.20;;;;;;5053953;28;21142;-68
2021/01/09 11:20:20;;;;;;;3.87;3.57;;;19.40;47.30;;;;;;5055434;28;20512;-69
2021/01/09 11:22:47;;;;;;;3.50;3.23;;;19.30;47.10;;;;;;5047688;28;20612;-67
2021/01/09 11:25:13;;;;;;;3.50;3.40;;;19.30;47.20;;;;;;5053651;28;20477;-69
2021/01/09 11:27:39;;;;;;;3.17;2.90;;;19.30;47.30;;;;;;5041408;28;20539;-68
2021/01/09 11:30:07;;;;;;;3.93;3.63;;;19.30;47.30;;;;;;5049789;28;20549;-67
2021/01/09 11:32:33;;;;;;;3.73;3.43;;;19.30;47.30;;;;;;5033170;28;20483;-68
2021/01/09 11:34:59;;;;;;;3.17;2.97;;;19.30;47.10;;;;;;5039275;28;20544;-68
2021/01/09 11:37:26;;;;;;;3.93;3.50;;;19.40;47.10;;;;;;5025597;28;20487;-68
2021/01/09 11:39:54;;;;;;;4.03;3.73;;;19.40;47.10;;;;;;5028100;28;20478;-68
2021/01/09 11:42:20;;;;;;;4.03;3.73;;;19.50;47.00;;;;;;5020222;28;20620;-68
2021/01/09 11:44:47;;;;;;;4.27;3.97;;;19.40;47.10;;;;;;5024644;28;20474;-69
2021/01/09 11:47:14;;;;;;;3.97;3.77;;;19.40;47.00;;;;;;5042234;28;20530;-68
2021/01/09 11:49:40;;;;;;;4.03;3.83;;;19.40;47.00;;;;;;5014466;28;20494;-69
2021/01/09 11:52:06;;;;;;;4.80;4.50;;;19.40;47.10;;;;;;5024295;28;20486;-68
2021/01/09 11:54:32;;;;;;;3.70;3.40;;;19.30;47.00;;;;;;5019804;28;20502;-69
2021/01/09 11:57:00;;;;;;;3.93;3.83;;;19.30;47.00;;;;;;5013720;28;20489;-68
2021/01/09 11:59:26;;;;;;;4.20;3.80;;;19.40;47.00;;;;;;5028208;28;20883;-68
2021/01/09 12:01:52;;;;;;;4.30;3.93;;;19.40;46.90;;;;;;5029353;28;20466;-68
2021/01/09 12:04:18;;;;;;;5.33;4.80;;;19.40;46.80;;;;;;5034301;28;20482;-68
2021/01/09 12:06:45;;;;;;;4.37;4.07;;;19.40;46.80;;;;;;5041178;28;21158;-68
2021/01/09 12:09:11;;;;;;;4.93;4.53;;;19.50;46.60;;;;;;5019796;28;20486;-69
2021/01/09 12:11:37;;;;;;;4.20;3.90;;;19.50;46.60;;;;;;5007314;28;21142;-68
2021/01/09 12:14:05;;;;;;;4.43;4.00;;;19.50;46.80;;;;;;5036533;28;20489;-68
2021/01/09 12:16:32;;;;;;;5.47;4.97;;;19.50;47.00;;;;;;5060963;28;20537;-69
2021/01/09 12:18:58;;;;;;;5.00;4.63;;;19.50;47.00;;;;;;5035683;28;20483;-68
2021/01/09 12:21:28;;;;;;;5.07;4.63;;;19.40;46.90;;;;;;5033254;28;20861;-68
2021/01/09 12:23:54;;;;;;;5.37;4.83;;;19.40;47.00;;;;;;5039584;28;20499;-68
2021/01/09 12:26:21;;;;;;;5.20;4.80;;;19.40;46.80;;;;;;5045721;28;20515;-68
2021/01/09 12:28:47;;;;;;;5.00;4.67;;;19.40;46.80;;;;;;5063718;28;20484;-68
2021/01/09 12:31:14;;;;;;;4.40;4.10;;;19.30;46.90;;;;;;5055157;28;20473;-68
2021/01/09 12:33:40;;;;;;;4.20;3.97;;;19.40;46.70;;;;;;5056994;28;20485;-68
2021/01/09 12:36:07;;;;;;;4.67;4.30;;;19.30;46.90;;;;;;5060195;28;20504;-68
2021/01/09 12:38:33;;;;;;;5.40;5.03;;;19.40;47.10;;;;;;5057395;28;20510;-68
2021/01/09 12:40:59;;;;;;;4.10;3.90;;;19.40;47.00;;;;;;5056724;28;20482;-69
2021/01/09 12:43:26;;;;;;;4.50;4.10;;;19.40;46.90;;;;;;5048040;28;20481;-68
2021/01/09 12:45:54;;;;;;;4.30;3.97;;;19.40;47.00;;;;;;5055378;28;20481;-68
2021/01/09 12:48:22;;;;;;;4.30;4.00;;;19.40;46.80;;;;;;5058278;28;20516;-68
2021/01/09 12:50:48;;;;;;;3.73;3.50;;;19.50;46.90;;;;;;5057332;28;20492;-68